Time;durP1;ratioP1;P1;durP2;ratioP2;P2;SDS_P1;SDS_P2;PMS_P1;PMS_P2;Temp;Humidity;BMP_temperature;BMP_pressure;BME280_temperature;BME280_humidity;BME280_pressure;Samples;Min_cycle;Max_cycle;Signal;HPM_P1;HPM_P2
2024/02/02 00:02:03;;;;;;;65.80;19.23;;;4.60;99.90;;;;;;5093287;28;20036;-69
2024/02/02 00:04:29;;;;;;;65.40;19.60;;;4.60;99.90;;;;;;5100553;28;20043;-71
2024/02/02 00:06:54;;;;;;;56.22;19.65;;;4.60;99.90;;;;;;5096682;28;20458;-71
2024/02/02 00:09:20;;;;;;;62.40;19.33;;;4.70;99.90;;;;;;5100039;28;20024;-69
2024/02/02 00:11:46;;;;;;;55.33;18.75;;;4.70;99.90;;;;;;5093052;28;20024;-70
2024/02/02 00:14:12;;;;;;;65.07;19.77;;;4.70;99.90;;;;;;5093611;28;20028;-70
2024/02/02 00:16:38;;;;;;;52.67;18.83;;;4.70;99.90;;;;;;5094329;28;20122;-70
2024/02/02 00:19:04;;;;;;;55.78;20.48;;;4.70;99.90;;;;;;5090831;28;20028;-70
2024/02/02 00:21:29;;;;;;;58.65;19.02;;;4.70;99.90;;;;;;5093851;28;20106;-71
2024/02/02 00:23:55;;;;;;;65.68;21.40;;;4.70;99.90;;;;;;5100987;28;20482;-70
2024/02/02 00:26:20;;;;;;;62.08;19.42;;;4.70;99.90;;;;;;5099505;28;20063;-70
2024/02/02 00:28:46;;;;;;;71.53;20.33;;;4.70;99.90;;;;;;5090075;28;20158;-70
2024/02/02 00:31:11;;;;;;;64.93;21.00;;;4.70;99.90;;;;;;5092093;28;20059;-70
2024/02/02 00:33:37;;;;;;;67.32;22.35;;;4.70;99.90;;;;;;5092258;28;20028;-71
2024/02/02 00:36:03;;;;;;;49.13;19.38;;;4.70;99.90;;;;;;5097088;28;20028;-72
2024/02/02 00:38:29;;;;;;;73.85;22.45;;;4.80;99.90;;;;;;5100642;28;20027;-71
2024/02/02 00:40:55;;;;;;;64.68;19.20;;;4.70;99.90;;;;;;5101043;28;20092;-70
2024/02/02 00:43:20;;;;;;;66.65;19.52;;;4.80;99.90;;;;;;5105280;28;20032;-71
2024/02/02 00:45:46;;;;;;;63.50;21.27;;;4.70;99.90;;;;;;5096145;28;20028;-69
2024/02/02 00:48:11;;;;;;;67.25;20.67;;;4.70;99.90;;;;;;5096251;28;20486;-70
2024/02/02 00:50:37;;;;;;;70.78;19.52;;;4.70;99.90;;;;;;5092226;28;20478;-71
2024/02/02 00:53:03;;;;;;;68.38;19.40;;;4.70;99.90;;;;;;5099262;28;20036;-70
2024/02/02 00:55:28;;;;;;;63.20;19.63;;;4.70;99.90;;;;;;5094612;28;20453;-70
2024/02/02 00:57:54;;;;;;;49.00;18.08;;;4.70;99.90;;;;;;5092766;28;20417;-69
2024/02/02 01:00:20;;;;;;;60.28;18.05;;;4.70;99.90;;;;;;5100497;28;20046;-69
2024/02/02 01:02:45;;;;;;;58.42;19.40;;;4.70;99.90;;;;;;5101633;28;20032;-71
2024/02/02 01:05:12;;;;;;;55.60;17.92;;;4.70;99.90;;;;;;5093227;28;20028;-69
2024/02/02 01:07:38;;;;;;;55.17;17.83;;;4.70;99.90;;;;;;5105576;28;20037;-68
2024/02/02 01:10:05;;;;;;;67.22;18.48;;;4.70;99.90;;;;;;5098034;28;20036;-69
2024/02/02 01:12:32;;;;;;;53.10;17.02;;;4.70;99.90;;;;;;5092333;28;20070;-69
2024/02/02 01:14:57;;;;;;;54.50;17.52;;;4.70;99.90;;;;;;5093414;28;20043;-70
2024/02/02 01:17:23;;;;;;;53.47;16.38;;;4.70;99.90;;;;;;5093868;28;20392;-69
2024/02/02 01:19:49;;;;;;;49.88;14.85;;;4.80;99.90;;;;;;5095575;28;20039;-69
2024/02/02 01:22:15;;;;;;;54.78;16.42;;;4.80;99.90;;;;;;5094181;28;20485;-69
2024/02/02 01:24:40;;;;;;;54.92;15.60;;;4.80;99.90;;;;;;5095424;28;20031;-69
2024/02/02 01:27:06;;;;;;;42.90;15.55;;;4.90;99.90;;;;;;5095857;28;20048;-69
2024/02/02 01:29:33;;;;;;;48.03;14.82;;;4.90;99.90;;;;;;5106552;28;20031;-70
2024/02/02 01:31:59;;;;;;;46.53;15.00;;;4.90;99.90;;;;;;5092672;28;20553;-70
2024/02/02 01:34:24;;;;;;;43.33;14.35;;;4.90;99.90;;;;;;5096511;28;20060;-70
2024/02/02 01:36:51;;;;;;;49.05;13.38;;;5.00;99.90;;;;;;5096413;28;20040;-69
2024/02/02 01:39:17;;;;;;;42.22;13.38;;;5.00;99.90;;;;;;5106765;28;20032;-71
2024/02/02 01:41:45;;;;;;;47.38;13.05;;;5.00;99.90;;;;;;5095071;28;20081;-70
2024/02/02 01:44:10;;;;;;;45.42;13.93;;;4.90;99.90;;;;;;5092913;28;20036;-69
2024/02/02 01:46:36;;;;;;;54.55;12.85;;;5.00;99.90;;;;;;5093456;28;20097;-69
2024/02/02 01:49:02;;;;;;;44.50;13.02;;;5.00;99.90;;;;;;5094109;28;20062;-70
2024/02/02 01:51:27;;;;;;;46.03;13.07;;;5.10;99.90;;;;;;5093260;28;20024;-71
2024/02/02 01:53:53;;;;;;;39.72;12.27;;;5.00;99.90;;;;;;5094059;28;20187;-70
2024/02/02 01:56:19;;;;;;;48.90;12.77;;;5.00;99.90;;;;;;5094608;28;20578;-71
2024/02/02 01:58:45;;;;;;;49.75;12.65;;;5.10;99.90;;;;;;5093286;28;20124;-70
2024/02/02 02:01:11;;;;;;;45.17;12.98;;;5.10;99.90;;;;;;5095836;28;20097;-70
2024/02/02 02:03:37;;;;;;;44.35;12.25;;;5.10;99.90;;;;;;5094310;28;20117;-70
2024/02/02 02:06:03;;;;;;;38.20;11.80;;;5.10;99.90;;;;;;5095270;28;20434;-69
2024/02/02 02:08:28;;;;;;;36.70;11.82;;;5.10;99.90;;;;;;5091408;28;20031;-70
2024/02/02 02:10:54;;;;;;;34.47;11.75;;;5.10;99.90;;;;;;5087576;28;20478;-70
2024/02/02 02:13:20;;;;;;;37.47;12.07;;;5.10;99.90;;;;;;5098900;28;20031;-71
2024/02/02 02:15:46;;;;;;;45.10;12.57;;;5.10;99.90;;;;;;5090290;28;20516;-70
2024/02/02 02:18:11;;;;;;;35.30;11.15;;;5.10;99.90;;;;;;5101163;28;20071;-70
2024/02/02 02:20:38;;;;;;;42.80;11.93;;;5.10;99.90;;;;;;5102258;28;20020;-70
2024/02/02 02:23:04;;;;;;;37.90;11.45;;;5.10;99.90;;;;;;5105449;28;20047;-70
2024/02/02 02:25:32;;;;;;;44.75;12.07;;;5.20;99.90;;;;;;5101654;28;20118;-70
2024/02/02 02:27:57;;;;;;;48.33;12.35;;;5.20;99.90;;;;;;5104147;28;20497;-70
2024/02/02 02:30:23;;;;;;;44.25;12.30;;;5.20;99.90;;;;;;5096661;28;20070;-70
2024/02/02 02:32:48;;;;;;;42.65;11.95;;;5.20;99.90;;;;;;5097302;28;20489;-71
2024/02/02 02:35:14;;;;;;;44.88;12.10;;;5.20;99.90;;;;;;5107291;28;20039;-71
2024/02/02 02:37:40;;;;;;;43.03;12.80;;;5.20;99.90;;;;;;5103745;28;20081;-69
2024/02/02 02:40:06;;;;;;;44.05;12.00;;;5.20;99.90;;;;;;5104833;28;20039;-70
2024/02/02 02:42:31;;;;;;;42.78;11.13;;;5.20;99.90;;;;;;5097418;28;20028;-70
2024/02/02 02:44:57;;;;;;;35.28;12.10;;;5.30;99.90;;;;;;5104838;28;20034;-70
2024/02/02 02:47:22;;;;;;;45.45;12.43;;;5.30;99.90;;;;;;5102366;28;20059;-70
2024/02/02 02:49:48;;;;;;;37.78;11.95;;;5.30;99.90;;;;;;5101326;28;20024;-70
2024/02/02 02:52:14;;;;;;;37.78;12.40;;;5.30;99.90;;;;;;5102117;28;20020;-70
2024/02/02 02:54:39;;;;;;;38.60;12.23;;;5.30;99.90;;;;;;5102413;28;20031;-70
2024/02/02 02:57:05;;;;;;;47.97;12.63;;;5.40;99.90;;;;;;5101704;28;20036;-70
2024/02/02 02:59:32;;;;;;;36.53;10.80;;;5.30;99.90;;;;;;5097267;28;20035;-70
2024/02/02 03:01:58;;;;;;;44.50;13.07;;;5.30;99.90;;;;;;5098398;28;20032;-70
2024/02/02 03:04:23;;;;;;;41.00;12.23;;;5.30;99.90;;;;;;5107120;28;20153;-70
2024/02/02 03:06:49;;;;;;;42.40;12.40;;;5.30;99.90;;;;;;5104912;28;20047;-70
2024/02/02 03:09:15;;;;;;;34.55;11.82;;;5.40;99.90;;;;;;5101493;28;20107;-70
2024/02/02 03:11:40;;;;;;;39.50;11.63;;;5.30;99.90;;;;;;5104542;28;20055;-70
2024/02/02 03:14:06;;;;;;;39.72;11.65;;;5.30;99.90;;;;;;5092994;28;20032;-69
2024/02/02 03:16:32;;;;;;;47.40;13.10;;;5.30;99.90;;;;;;5094846;28;20386;-70
2024/02/02 03:18:57;;;;;;;34.42;11.23;;;5.40;99.90;;;;;;5095949;28;20036;-70
2024/02/02 03:21:23;;;;;;;38.42;12.75;;;5.40;99.90;;;;;;5099039;28;20046;-70
2024/02/02 03:23:48;;;;;;;37.83;11.82;;;5.40;99.90;;;;;;5095029;28;20031;-70
2024/02/02 03:26:14;;;;;;;52.55;12.50;;;5.40;99.90;;;;;;5099533;28;20147;-70
2024/02/02 03:28:39;;;;;;;34.75;11.88;;;5.40;99.90;;;;;;5094741;28;20375;-68
2024/02/02 03:31:06;;;;;;;38.53;11.50;;;5.40;99.90;;;;;;5103534;28;20023;-67
2024/02/02 03:33:32;;;;;;;36.40;11.93;;;5.40;98.50;;;;;;5102431;28;20478;-69
2024/02/02 03:35:58;;;;;;;42.92;11.48;;;5.40;96.70;;;;;;5101479;28;20134;-69
2024/02/02 03:38:23;;;;;;;46.35;11.82;;;5.40;94.70;;;;;;5097119;28;20671;-69
2024/02/02 03:40:49;;;;;;;46.45;12.00;;;5.40;93.80;;;;;;5101425;28;20055;-69
2024/02/02 03:43:14;;;;;;;37.53;12.27;;;5.40;95.40;;;;;;5103696;28;20039;-69
2024/02/02 03:45:40;;;;;;;42.50;11.65;;;5.40;94.30;;;;;;5100204;28;20020;-70
2024/02/02 03:48:06;;;;;;;37.28;12.00;;;5.40;94.00;;;;;;5100274;28;20035;-71
2024/02/02 03:50:32;;;;;;;36.63;12.48;;;5.40;93.20;;;;;;5098760;27;20031;-68
2024/02/02 03:53:00;;;;;;;38.35;11.90;;;5.40;92.50;;;;;;5104509;28;20024;-67
2024/02/02 03:55:26;;;;;;;35.95;11.73;;;5.40;90.80;;;;;;5096816;28;20106;-70
2024/02/02 03:57:51;;;;;;;39.25;11.40;;;5.40;88.30;;;;;;5101855;28;20049;-67
2024/02/02 04:00:17;;;;;;;33.08;11.45;;;5.40;82.10;;;;;;5103101;28;20488;-70
2024/02/02 04:02:45;;;;;;;33.15;11.07;;;5.40;81.80;;;;;;5101908;28;20112;-70
2024/02/02 04:05:11;;;;;;;37.25;11.82;;;5.40;79.30;;;;;;5104467;28;20591;-70
2024/02/02 04:07:36;;;;;;;32.13;11.90;;;5.40;79.30;;;;;;5114471;28;20020;-69
2024/02/02 04:10:03;;;;;;;30.75;10.82;;;5.40;81.30;;;;;;5100262;28;20020;-69
2024/02/02 04:12:28;;;;;;;34.05;10.48;;;5.40;73.30;;;;;;5110856;28;20043;-70
2024/02/02 04:14:54;;;;;;;32.45;10.30;;;5.40;73.20;;;;;;5102248;28;20020;-70
2024/02/02 04:17:19;;;;;;;35.28;10.38;;;5.40;69.40;;;;;;5094366;28;20044;-69
2024/02/02 04:19:45;;;;;;;29.58;10.15;;;5.50;60.10;;;;;;5093810;28;20028;-69
2024/02/02 04:22:11;;;;;;;30.20;10.82;;;5.50;64.90;;;;;;5093566;28;20035;-69
2024/02/02 04:24:37;;;;;;;28.58;9.57;;;5.40;67.40;;;;;;5092072;28;20039;-69
2024/02/02 04:27:03;;;;;;;38.95;10.50;;;5.50;70.60;;;;;;5094623;28;20058;-69
2024/02/02 04:29:28;;;;;;;30.80;9.57;;;5.40;78.10;;;;;;5106267;28;20028;-69
2024/02/02 04:31:54;;;;;;;32.13;10.30;;;5.50;74.40;;;;;;5098529;28;20051;-69
2024/02/02 04:34:19;;;;;;;33.22;10.02;;;5.40;81.00;;;;;;5094800;28;20542;-69
2024/02/02 04:36:45;;;;;;;39.67;10.10;;;5.40;84.60;;;;;;5094149;28;20486;-68
2024/02/02 04:39:10;;;;;;;28.92;9.90;;;5.40;86.30;;;;;;5098030;28;20028;-69
2024/02/02 04:41:36;;;;;;;32.92;10.65;;;5.40;87.30;;;;;;5097878;28;20027;-68
2024/02/02 04:44:02;;;;;;;35.40;10.50;;;5.40;90.80;;;;;;5104445;28;20111;-68
2024/02/02 04:46:27;;;;;;;34.63;10.63;;;5.40;92.20;;;;;;5096976;28;20084;-70
2024/02/02 04:48:53;;;;;;;29.67;10.10;;;5.40;97.40;;;;;;5103078;28;20035;-70
2024/02/02 04:51:18;;;;;;;34.35;10.85;;;5.40;99.90;;;;;;5093156;28;20065;-70
2024/02/02 04:53:44;;;;;;;35.05;9.77;;;5.40;99.90;;;;;;5098224;28;20059;-70
2024/02/02 04:56:10;;;;;;;38.28;10.50;;;5.40;99.90;;;;;;5102430;28;20030;-70
2024/02/02 04:58:35;;;;;;;36.80;11.18;;;5.40;99.90;;;;;;5104919;28;20476;-70
2024/02/02 05:01:01;;;;;;;37.83;10.80;;;5.40;99.90;;;;;;5095814;28;20543;-70
2024/02/02 05:03:27;;;;;;;36.30;10.18;;;5.40;99.90;;;;;;5094293;28;20031;-70
2024/02/02 05:05:53;;;;;;;35.92;10.20;;;5.40;99.90;;;;;;5093511;28;20016;-71
2024/02/02 05:08:19;;;;;;;34.28;10.30;;;5.40;99.90;;;;;;5092244;28;20042;-70
2024/02/02 05:10:45;;;;;;;41.67;10.38;;;5.40;99.90;;;;;;5098585;28;20023;-69
2024/02/02 05:13:11;;;;;;;35.50;10.27;;;5.40;99.90;;;;;;5100390;28;20039;-69
2024/02/02 05:15:36;;;;;;;51.10;12.50;;;5.40;99.90;;;;;;5097718;28;20031;-69
2024/02/02 05:18:02;;;;;;;32.63;10.55;;;5.40;99.90;;;;;;5096819;28;20165;-69
2024/02/02 05:20:27;;;;;;;31.15;10.35;;;5.40;99.90;;;;;;5100712;28;20036;-69
2024/02/02 05:22:53;;;;;;;37.95;10.48;;;5.40;99.90;;;;;;5094964;28;20035;-71
2024/02/02 05:25:19;;;;;;;36.17;10.70;;;5.40;99.90;;;;;;5096872;28;20441;-67
2024/02/02 05:27:44;;;;;;;33.03;10.10;;;5.40;99.90;;;;;;5103546;28;20139;-67
2024/02/02 05:30:10;;;;;;;33.85;10.30;;;5.40;99.90;;;;;;5105337;28;20428;-68
2024/02/02 05:32:35;;;;;;;33.92;10.82;;;5.40;99.90;;;;;;5096164;28;20032;-69
2024/02/02 05:35:01;;;;;;;30.58;10.95;;;5.40;99.90;;;;;;5092562;28;20031;-68
2024/02/02 05:37:26;;;;;;;31.77;9.95;;;5.50;99.90;;;;;;5102041;28;20388;-68
2024/02/02 05:39:52;;;;;;;37.72;10.45;;;5.50;99.90;;;;;;5104261;28;20024;-68
2024/02/02 05:42:19;;;;;;;30.20;10.02;;;5.50;99.90;;;;;;5095859;28;20067;-68
2024/02/02 05:44:44;;;;;;;41.95;9.77;;;5.60;99.90;;;;;;5092728;28;20036;-68
2024/02/02 05:47:10;;;;;;;36.10;9.90;;;5.60;99.90;;;;;;5096240;28;20088;-68
2024/02/02 05:49:36;;;;;;;32.83;10.43;;;5.60;99.90;;;;;;5106627;28;20035;-68
2024/02/02 05:52:01;;;;;;;36.15;9.15;;;5.60;99.90;;;;;;5100604;28;20016;-68
2024/02/02 05:54:27;;;;;;;30.25;9.50;;;5.60;99.90;;;;;;5103108;28;20169;-69
2024/02/02 05:56:52;;;;;;;34.38;9.77;;;5.50;99.90;;;;;;5099968;28;20133;-68
2024/02/02 05:59:18;;;;;;;35.85;9.48;;;5.60;99.90;;;;;;5103405;28;20078;-72
2024/02/02 06:01:44;;;;;;;34.90;9.80;;;5.60;99.90;;;;;;5104084;28;20408;-72
2024/02/02 06:04:10;;;;;;;30.63;8.55;;;5.50;99.90;;;;;;5100317;28;20036;-73
2024/02/02 06:06:36;;;;;;;32.92;8.55;;;5.60;99.90;;;;;;5099046;28;20032;-73
2024/02/02 06:09:02;;;;;;;39.42;8.77;;;5.60;99.90;;;;;;5095620;28;20028;-74
2024/02/02 06:11:28;;;;;;;34.95;8.38;;;5.70;98.90;;;;;;5096274;28;20430;-73
2024/02/02 06:13:55;;;;;;;34.78;8.48;;;5.70;96.50;;;;;;5098134;28;20066;-73
2024/02/02 06:16:22;;;;;;;30.02;7.32;;;5.70;93.70;;;;;;5091893;28;20031;-72
2024/02/02 06:18:48;;;;;;;32.88;7.57;;;5.80;88.80;;;;;;5098000;28;20555;-73
2024/02/02 06:21:14;;;;;;;31.90;8.68;;;5.80;77.10;;;;;;5101188;28;20470;-73
2024/02/02 06:23:39;;;;;;;31.52;8.43;;;5.80;60.30;;;;;;5101165;28;20034;-72
2024/02/02 06:26:05;;;;;;;29.42;7.55;;;5.90;54.00;;;;;;5097716;28;20054;-73
2024/02/02 06:28:31;;;;;;;28.60;6.90;;;5.90;55.20;;;;;;5098178;28;20032;-73
2024/02/02 06:30:56;;;;;;;17.58;7.22;;;5.90;49.80;;;;;;5095620;28;20054;-72
2024/02/02 06:33:22;;;;;;;27.23;6.93;;;5.90;38.20;;;;;;5090413;28;20024;-70
2024/02/02 06:35:47;;;;;;;25.85;6.82;;;6.00;23.50;;;;;;5094184;28;20474;-66
2024/02/02 06:38:13;;;;;;;27.85;6.55;;;6.00;22.60;;;;;;5094361;28;20028;-70
2024/02/02 06:40:39;;;;;;;31.42;6.97;;;6.10;12.90;;;;;;5095107;28;20485;-72
2024/02/02 06:43:05;;;;;;;30.42;7.10;;;6.00;10.50;;;;;;5096858;28;20035;-70
2024/02/02 06:45:31;;;;;;;25.42;6.82;;;6.00;6.00;;;;;;5095399;28;20036;-69
2024/02/02 06:47:56;;;;;;;25.75;6.18;;;6.00;2.70;;;;;;5093401;28;20615;-69
2024/02/02 06:50:22;;;;;;;22.25;6.10;;;6.00;1.00;;;;;;5094741;28;20028;-70
2024/02/02 06:52:48;;;;;;;20.00;5.28;;;6.10;1.00;;;;;;5093752;28;20028;-69
2024/02/02 06:55:14;;;;;;;31.80;7.30;;;6.30;1.00;;;;;;5099046;28;20054;-69
2024/02/02 06:57:41;;;;;;;26.30;6.05;;;6.20;1.00;;;;;;5097785;28;20501;-65
2024/02/02 07:00:15;;;;;;;22.80;5.68;;;6.20;1.00;;;;;;5092417;28;20024;-66
2024/02/02 07:02:42;;;;;;;24.98;6.25;;;6.10;1.00;;;;;;5098981;28;20035;-66
2024/02/02 07:05:09;;;;;;;31.73;7.18;;;6.10;1.00;;;;;;5099233;28;20370;-67
2024/02/02 07:07:35;;;;;;;26.85;5.88;;;6.10;1.00;;;;;;5099428;28;20034;-71
2024/02/02 07:10:03;;;;;;;24.98;5.57;;;6.10;1.00;;;;;;5101204;28;20028;-72
2024/02/02 07:15:22;;;;;;;25.80;6.75;;;6.20;1.00;;;;;;5067478;28;20394;-68
2024/02/02 07:17:48;;;;;;;21.55;6.45;;;6.20;1.00;;;;;;5053062;28;20111;-68
2024/02/02 07:23:07;;;;;;;28.55;6.40;;;6.20;1.00;;;;;;5094011;27;20417;-68
2024/02/02 07:25:38;;;;;;;27.80;6.55;;;6.20;1.00;;;;;;5070753;28;20028;-68
2024/02/02 07:28:07;;;;;;;31.65;7.05;;;6.20;1.00;;;;;;5069456;28;20063;-68
2024/02/02 07:33:23;;;;;;;28.83;6.95;;;6.20;1.00;;;;;;5112919;27;20330;-68
2024/02/02 07:35:49;;;;;;;23.35;6.45;;;6.20;1.00;;;;;;5089929;28;20017;-67
2024/02/02 07:38:39;;;;;;;33.58;6.57;;;6.20;1.00;;;;;;5084647;28;20017;-69
2024/02/02 07:41:07;;;;;;;21.02;6.78;;;6.20;1.00;;;;;;5084915;28;20500;-69
2024/02/02 07:43:32;;;;;;;20.70;6.30;;;6.20;1.00;;;;;;5087367;28;20032;-69
2024/02/02 07:46:00;;;;;;;27.83;6.60;;;6.20;1.00;;;;;;5090579;28;20517;-69
2024/02/02 07:48:26;;;;;;;28.40;6.57;;;6.20;1.00;;;;;;5088221;28;20485;-70
2024/02/02 07:50:51;;;;;;;25.92;7.38;;;6.30;1.00;;;;;;5089317;28;20040;-68
2024/02/02 07:53:17;;;;;;;27.35;6.43;;;6.30;1.00;;;;;;5095350;28;20048;-69
2024/02/02 07:55:43;;;;;;;25.42;7.20;;;6.40;1.00;;;;;;5089669;28;20374;-67
2024/02/02 07:58:08;;;;;;;22.15;7.60;;;6.60;1.00;;;;;;5086050;28;20528;-68
2024/02/02 08:00:34;;;;;;;25.05;6.43;;;6.70;1.00;;;;;;5087480;28;20020;-68
2024/02/02 08:03:00;;;;;;;29.58;6.40;;;7.00;99.90;;;;;;5086091;28;20028;-68
2024/02/02 08:05:27;;;;;;;23.05;6.57;;;7.20;99.90;;;;;;5079636;28;20078;-69
2024/02/02 08:07:53;;;;;;;29.67;6.90;;;7.40;99.90;;;;;;5085052;28;20020;-68
2024/02/02 08:10:18;;;;;;;28.50;6.20;;;7.40;99.90;;;;;;5083664;28;20082;-68
2024/02/02 08:12:44;;;;;;;28.70;5.93;;;7.20;99.90;;;;;;5086093;28;20390;-69
2024/02/02 08:15:10;;;;;;;29.30;6.35;;;7.10;99.90;;;;;;5085478;28;20036;-70
2024/02/02 08:17:35;;;;;;;21.35;6.30;;;7.00;99.90;;;;;;5086746;28;20136;-70
2024/02/02 08:20:01;;;;;;;27.52;6.32;;;7.20;99.90;;;;;;5087395;28;20032;-69
2024/02/02 08:22:26;;;;;;;24.15;5.80;;;7.20;99.90;;;;;;5085454;28;20027;-68
2024/02/02 08:24:52;;;;;;;20.35;5.78;;;7.10;64.60;;;;;;5084533;28;20040;-70
2024/02/02 08:27:19;;;;;;;23.42;5.82;;;7.20;47.70;;;;;;5085256;28;20050;-69
2024/02/02 08:29:45;;;;;;;23.70;6.50;;;7.20;39.50;;;;;;5078292;28;20043;-69
2024/02/02 08:32:12;;;;;;;21.13;5.95;;;7.30;90.40;;;;;;5084196;28;20049;-69
2024/02/02 08:34:38;;;;;;;22.80;5.93;;;7.40;56.60;;;;;;5073074;28;20104;-69
2024/02/02 08:37:03;;;;;;;21.92;5.72;;;7.40;33.50;;;;;;5086615;28;20171;-70
2024/02/02 08:39:33;;;;;;;24.13;6.25;;;7.30;72.20;;;;;;5084825;28;20028;-70
2024/02/02 08:42:00;;;;;;;19.10;5.22;;;7.10;99.90;;;;;;5084635;28;20051;-70
2024/02/02 08:44:30;;;;;;;17.50;5.43;;;7.30;99.90;;;;;;5070351;28;20031;-69
2024/02/02 08:46:57;;;;;;;22.52;5.90;;;7.40;97.30;;;;;;5071527;28;20051;-69
2024/02/02 08:52:06;;;;;;;24.65;6.05;;;7.30;99.90;;;;;;5070543;28;20804;-71
2024/02/02 08:54:33;;;;;;;23.25;5.60;;;7.30;99.90;;;;;;5047512;28;20036;-71
2024/02/02 08:57:24;;;;;;;22.40;5.88;;;7.60;75.00;;;;;;5047831;28;20501;-71
2024/02/02 08:59:52;;;;;;;45.20;17.92;;;7.80;1.00;;;;;;5049075;28;20079;-71
2024/02/02 09:02:54;;;;;;;32.70;9.50;;;7.80;99.90;;;;;;5043954;28;20051;-73
2024/02/02 09:05:23;;;;;;;24.13;5.88;;;7.80;1.00;;;;;;5048585;28;20033;-71
2024/02/02 09:07:52;;;;;;;23.70;6.22;;;7.70;99.90;;;;;;5048493;28;21016;-71
2024/02/02 09:13:20;;;;;;;23.92;6.68;;;8.10;99.90;;;;;;5089744;27;20401;-70
2024/02/02 09:15:46;;;;;;;21.70;6.68;;;8.10;99.90;;;;;;5091983;28;20077;-70
2024/02/02 09:18:30;;;;;;;29.02;6.80;;;8.10;99.90;;;;;;5094173;28;20032;-71
2024/02/02 09:20:56;;;;;;;27.63;7.40;;;7.90;1.00;;;;;;5101777;28;20486;-72
2024/02/02 09:23:21;;;;;;;23.50;6.95;;;7.60;11.80;;;;;;5093052;28;20482;-71
2024/02/02 09:25:47;;;;;;;22.35;6.97;;;7.60;99.90;;;;;;5090141;28;20038;-71
2024/02/02 09:31:06;;;;;;;29.45;8.43;;;7.60;99.90;;;;;;5085626;27;20462;-71
2024/02/02 09:36:11;;;;;;;22.08;7.97;;;7.60;99.90;;;;;;5107183;27;20705;-72
2024/02/02 09:38:37;;;;;;;26.05;9.15;;;7.60;99.90;;;;;;5093494;28;20051;-72
2024/02/02 09:44:02;;;;;;;27.25;12.82;;;7.50;99.90;;;;;;5105938;27;20432;-71
2024/02/02 09:46:54;;;;;;;30.98;12.18;;;7.50;99.90;;;;;;5108368;28;20043;-71
2024/02/02 09:49:59;;;;;;;25.73;8.02;;;7.60;99.90;;;;;;5111843;28;20030;-71
2024/02/02 09:52:52;;;;;;;29.38;7.75;;;7.50;99.90;;;;;;5108886;28;20039;-71
2024/02/02 09:55:28;;;;;;;24.45;8.05;;;7.60;99.90;;;;;;5112358;28;20058;-70
2024/02/02 09:58:01;;;;;;;31.58;9.23;;;7.50;99.90;;;;;;5097087;28;20039;-71
2024/02/02 10:06:23;;;;;;;28.33;9.40;;;7.50;99.90;;;;;;5108404;27;20458;-71
2024/02/02 10:09:03;;;;;;;35.30;11.00;;;7.60;99.90;;;;;;5101817;28;20034;-72
2024/02/02 10:12:06;;;;;;;30.65;9.15;;;7.60;99.90;;;;;;5106215;28;20126;-71
2024/02/02 10:15:11;;;;;;;29.27;8.93;;;7.60;99.90;;;;;;5109264;28;20044;-72
2024/02/02 10:18:12;;;;;;;23.08;8.32;;;7.70;99.90;;;;;;5106160;28;20046;-72
2024/02/02 10:20:52;;;;;;;35.35;9.48;;;7.80;99.90;;;;;;5120085;28;20473;-70
2024/02/02 10:23:43;;;;;;;27.38;9.20;;;7.80;99.90;;;;;;5110370;28;20409;-72
2024/02/02 10:29:15;;;;;;;33.08;9.05;;;7.90;99.90;;;;;;5066089;28;20657;-71
2024/02/02 10:31:56;;;;;;;24.50;7.97;;;8.10;99.90;;;;;;5063366;28;20032;-72
2024/02/02 10:34:41;;;;;;;26.30;8.48;;;8.10;99.90;;;;;;5067342;28;20021;-70
2024/02/02 10:37:21;;;;;;;28.15;7.88;;;8.20;38.50;;;;;;5066001;28;20032;-70
2024/02/02 10:40:07;;;;;;;26.50;8.45;;;8.20;99.90;;;;;;5065213;28;20086;-70
2024/02/02 10:45:56;;;;;;;28.42;7.65;;;8.30;88.50;;;;;;5091664;27;20902;-71
2024/02/02 10:49:02;;;;;;;21.77;8.00;;;8.80;99.90;;;;;;5087946;28;20024;-71
2024/02/02 10:51:52;;;;;;;25.15;8.38;;;8.90;99.90;;;;;;5093115;28;20987;-71
2024/02/02 10:54:42;;;;;;;26.20;8.13;;;9.00;1.00;;;;;;5083773;28;20055;-71
2024/02/02 10:57:31;;;;;;;24.08;8.95;;;9.10;99.90;;;;;;5090843;28;20032;-71
2024/02/02 11:00:08;;;;;;;27.42;8.43;;;9.00;1.00;;;;;;5087114;28;20390;-72
2024/02/02 11:02:51;;;;;;;22.17;8.13;;;8.80;8.20;;;;;;5088142;28;20038;-72
2024/02/02 11:05:28;;;;;;;25.98;8.65;;;8.70;96.40;;;;;;5084940;28;20478;-71
2024/02/02 11:08:02;;;;;;;28.05;10.07;;;8.80;99.90;;;;;;5086243;28;20089;-70
2024/02/02 11:10:31;;;;;;;;;;;8.90;99.90;;;;;;5087698;28;20020;-71
2024/02/02 11:13:23;;;;;;;24.75;8.75;;;8.90;99.90;;;;;;5078683;28;19912;-71
2024/02/02 11:16:28;;;;;;;21.50;7.63;;;9.10;99.90;;;;;;5085432;28;20032;-70
2024/02/02 11:19:16;;;;;;;24.77;8.75;;;9.30;71.10;;;;;;5086369;28;20052;-70
2024/02/02 11:22:06;;;;;;;23.92;8.32;;;9.40;99.90;;;;;;5086755;28;20035;-71
2024/02/02 11:24:50;;;;;;;24.52;7.88;;;9.20;99.90;;;;;;5094899;28;20024;-70
2024/02/02 11:27:22;;;;;;;28.33;8.30;;;9.10;1.00;;;;;;5087998;28;20031;-69
2024/02/02 11:30:06;;;;;;;27.10;8.65;;;9.00;1.00;;;;;;5093480;28;20027;-69
2024/02/02 11:32:57;;;;;;;26.10;8.63;;;9.00;1.00;;;;;;5087507;28;20031;-70
2024/02/02 11:35:49;;;;;;;26.42;8.93;;;9.10;1.00;;;;;;5087110;28;20386;-71
2024/02/02 11:38:39;;;;;;;29.40;9.18;;;9.10;1.00;;;;;;5093082;28;20502;-70
2024/02/02 11:41:14;;;;;;;19.25;8.50;;;9.20;33.20;;;;;;5086121;28;20367;-70
2024/02/02 11:43:41;;;;;;;23.73;8.25;;;9.20;1.00;;;;;;5087058;28;20037;-70
2024/02/02 11:46:07;;;;;;;25.60;7.60;;;9.20;1.00;;;;;;5097749;28;20438;-69
2024/02/02 11:48:35;;;;;;;28.98;8.57;;;9.30;1.00;;;;;;5085137;28;20040;-70
2024/02/02 11:51:02;;;;;;;24.98;8.05;;;9.30;1.00;;;;;;5087087;28;20432;-70
2024/02/02 11:54:01;;;;;;;18.85;9.10;;;9.40;1.00;;;;;;5089271;28;20068;-70
2024/02/02 11:56:33;;;;;;;22.00;7.40;;;9.40;1.00;;;;;;5077090;28;20111;-70
2024/02/02 11:59:05;;;;;;;25.17;7.57;;;9.60;1.00;;;;;;5076676;28;20553;-69
2024/02/02 12:02:00;;;;;;;23.40;8.32;;;9.70;1.00;;;;;;5072798;28;20056;-70
2024/02/02 12:04:47;;;;;;;22.38;8.32;;;9.40;1.00;;;;;;5072632;28;20040;-66
2024/02/02 12:07:39;;;;;;;30.00;10.68;;;9.40;26.60;;;;;;5070415;28;20043;-69
2024/02/02 12:10:08;;;;;;;29.17;9.73;;;9.40;84.40;;;;;;5071381;28;20474;-67
2024/02/02 12:12:43;;;;;;;24.77;10.65;;;9.30;99.90;;;;;;5070157;28;20497;-67
2024/02/02 12:15:09;;;;;;;21.25;9.57;;;9.30;99.90;;;;;;5069489;28;20040;-68
2024/02/02 12:17:36;;;;;;;24.05;9.73;;;9.40;99.90;;;;;;5070949;28;20040;-67
2024/02/02 12:20:07;;;;;;;29.73;9.68;;;9.50;99.90;;;;;;5070943;28;20037;-67
2024/02/02 12:22:34;;;;;;;26.55;9.50;;;9.50;67.50;;;;;;5072173;28;20028;-66
2024/02/02 12:25:04;;;;;;;26.13;9.15;;;9.60;99.90;;;;;;5071459;28;20059;-66
2024/02/02 12:27:30;;;;;;;23.23;8.52;;;9.70;1.00;;;;;;5072697;28;20430;-67
2024/02/02 12:29:56;;;;;;;32.70;10.25;;;9.70;1.00;;;;;;5071989;28;20021;-67
2024/02/02 12:32:21;;;;;;;31.67;11.00;;;9.80;1.00;;;;;;5073677;28;20173;-68
2024/02/02 12:34:47;;;;;;;23.17;9.77;;;9.60;86.60;;;;;;5073329;28;20031;-65
2024/02/02 12:37:12;;;;;;;25.25;10.40;;;9.70;99.90;;;;;;5071528;28;20036;-66
2024/02/02 12:39:38;;;;;;;26.15;10.73;;;9.80;99.90;;;;;;5072874;28;20032;-65
2024/02/02 12:42:05;;;;;;;29.65;11.85;;;9.90;1.00;;;;;;5073204;28;20149;-65
2024/02/02 12:44:31;;;;;;;26.10;11.82;;;9.80;99.90;;;;;;5072403;28;20037;-66
2024/02/02 12:46:58;;;;;;;28.30;11.60;;;9.80;99.90;;;;;;5073152;28;20078;-65
2024/02/02 12:49:23;;;;;;;29.58;11.85;;;9.70;99.90;;;;;;5077809;28;20024;-65
2024/02/02 12:51:49;;;;;;;23.20;10.93;;;9.70;99.90;;;;;;5076651;28;20029;-65
2024/02/02 12:54:15;;;;;;;27.33;12.05;;;9.60;99.90;;;;;;5076573;28;20081;-66
2024/02/02 12:56:41;;;;;;;28.73;11.27;;;9.50;99.90;;;;;;5072394;28;20493;-68
2024/02/02 12:59:11;;;;;;;29.23;12.27;;;9.60;99.90;;;;;;5074703;28;20028;-67
2024/02/02 13:01:36;;;;;;;29.05;11.65;;;9.70;99.90;;;;;;5070158;28;20039;-66
2024/02/02 13:04:03;;;;;;;23.92;10.50;;;9.80;99.90;;;;;;5072591;28;20024;-65
2024/02/02 13:06:30;;;;;;;28.88;11.18;;;9.90;99.90;;;;;;5072725;28;20392;-65
2024/02/02 13:09:26;;;;;;;25.13;10.10;;;10.10;99.90;;;;;;5073852;28;20013;-66
2024/02/02 13:11:54;;;;;;;32.22;10.27;;;10.30;99.90;;;;;;5073499;28;20036;-65
2024/02/02 13:14:36;;;;;;;21.08;9.68;;;10.60;1.00;;;;;;5073671;28;20043;-66
2024/02/02 13:17:08;;;;;;;27.33;9.13;;;10.50;1.00;;;;;;5073131;28;20083;-66
2024/02/02 13:19:38;;;;;;;20.95;8.60;;;10.60;99.90;;;;;;5072471;28;20085;-65
2024/02/02 13:22:04;;;;;;;26.55;8.85;;;10.60;99.90;;;;;;5074299;28;20036;-69
2024/02/02 13:24:31;;;;;;;22.20;8.73;;;10.70;99.90;;;;;;5073939;28;20081;-68
2024/02/02 13:27:17;;;;;;;20.00;8.18;;;10.90;99.90;;;;;;5073535;28;20017;-69
2024/02/02 13:29:49;;;;;;;27.23;9.05;;;11.00;99.90;;;;;;5072882;28;20063;-69